Weather reports worldwide

Advertisment
Roquetas de Mar, Spain (8492): temperature & dewpoint: 14.10.2019 23:00:00 - 20.10.2019 23:00:00 (CEST)Roquetas de Mar, Spain (8492): wind speed & gusts: 14.10.2019 23:00:00 - 20.10.2019 23:00:00 (CEST)Roquetas de Mar, Spain (8492): wind direction: 14.10.2019 23:00:00 - 20.10.2019 23:00:00 (CEST)Roquetas de Mar, Spain (8492): reduced air pressure: 14.10.2019 23:00:00 - 20.10.2019 23:00:00 (CEST)Roquetas de Mar, Spain (8492): visibility: 14.10.2019 23:00:00 - 20.10.2019 23:00:00 (CEST)Roquetas de Mar, Spain (8492): sunshine duration: 14.10.2019 23:00:00 - 20.10.2019 23:00:00 (CEST)Roquetas de Mar, Spain (8492): precipitation: 14.10.2019 23:00:00 - 20.10.2019 23:00:00 (CEST)
Date & Time tt [°C] td [°C] ff [km/h] ff [kn] fx [km/h] fx [kn] dd ppp [hPa] vv [km] sd [min] rr [mm]
20.10.2019 23:00:00 - - - - - - - - - - -
20.10.2019 22:00:00 - - - - - - - - - - -
20.10.2019 21:00:00 - - - - - - - - - - -
20.10.2019 20:00:00 - - - - - - - - - - -
20.10.2019 19:00:00 - - - - - - - - - - -
20.10.2019 18:00:00 19,8 12,6 25 14 44 24 W - 20 0 0,0
20.10.2019 17:00:00 20,0 12,0 19 11 43 23 WSW - 20 0 0,0
20.10.2019 16:00:00 20,2 11,9 25 13 62 33 WSW - 20 0 0,0
20.10.2019 15:00:00 19,5 11,8 34 19 56 30 W - 20 0 0,0
20.10.2019 14:00:00 18,6 12,1 36 19 54 29 W - 20 0 -
20.10.2019 13:00:00 17,6 12,5 23 12 41 22 W - 20 0 0,0
20.10.2019 12:00:00 17,8 12,5 23 13 55 30 WSW - 20 0 0,0
20.10.2019 11:00:00 17,7 12,6 26 14 46 25 W - 20 0 0,2
20.10.2019 10:00:00 17,0 12,9 27 15 63 34 W - 13 0 0,2
20.10.2019 09:00:00 18,8 13,4 32 17 58 31 W - 20 0 0,0
20.10.2019 08:00:00 18,3 15,6 15 8 28 15 WSW - 20 0 -
20.10.2019 07:00:00 18,9 16,7 14 8 43 23 WSW - 20 0 0,0
20.10.2019 06:00:00 19,3 16,9 22 12 39 21 W - 20 0 0,0
20.10.2019 05:00:00 19,7 16,7 27 15 47 25 W - 20 0 0,0
20.10.2019 04:00:00 20,0 16,0 27 14 53 29 W - 20 0 0,0
20.10.2019 03:00:00 20,5 16,1 27 15 46 25 W - 20 0 0,0
20.10.2019 02:00:00 21,6 14,3 27 15 53 28 W - 20 0 -
20.10.2019 01:00:00 21,6 14,3 31 17 54 29 W - 20 0 0,0
20.10.2019 00:00:00 20,1 15,7 23 12 36 20 W - 20 0 0,0
19.10.2019 23:00:00 19,9 16,0 23 12 42 23 W - 20 0 0,0
19.10.2019 22:00:00 20,3 15,7 22 12 44 24 W - 20 0 0,0
19.10.2019 21:00:00 20,2 16,4 27 14 50 27 W - 20 0 0,0
19.10.2019 20:00:00 20,4 16,8 27 15 53 28 W - 20 0 -
19.10.2019 19:00:00 20,8 17,0 32 17 50 27 W - 20 0 0,0
19.10.2019 18:00:00 21,7 16,4 31 17 51 28 W - 20 0 0,0
19.10.2019 17:00:00 21,8 16,5 32 17 48 26 W - 20 0 0,0
19.10.2019 16:00:00 22,5 17,2 27 15 41 22 W - 20 0 0,0
19.10.2019 15:00:00 22,7 16,7 22 12 42 23 W - 20 0 0,0
19.10.2019 14:00:00 22,5 17,2 22 12 39 21 W - 20 0 -
19.10.2019 13:00:00 23,1 17,8 12 6 26 14 WSW - 20 0 0,0
19.10.2019 12:00:00 21,2 18,4 8 4 18 10 WSW - 20 0 0,0
19.10.2019 11:00:00 19,7 18,2 6 4 14 8 W - 20 0 0,0
19.10.2019 10:00:00 17,5 16,0 3 2 9 5 NNW - 6 0 0,0
19.10.2019 09:00:00 16,0 14,5 7 4 9 5 NW - 4,5 0 0,0
19.10.2019 08:00:00 16,5 14,9 4 2 8 5 N - 3,5 0 -
19.10.2019 07:00:00 17,4 15,7 5 3 9 5 N - 4,5 0 0,0
19.10.2019 06:00:00 18,2 16,5 5 3 8 5 WNW - 7 0 0,0
19.10.2019 05:00:00 18,4 16,7 4 2 11 6 NW - 8 0 0,0
19.10.2019 04:00:00 18,7 17,0 8 5 11 6 N - 8 0 0,0
19.10.2019 03:00:00 18,1 16,3 4 2 8 5 N - 7 0 0,0
19.10.2019 02:00:00 17,0 15,0 6 3 9 5 NNW - 9 0 -
19.10.2019 01:00:00 15,7 13,4 8 4 10 6 NNW - 7 0 0,0
19.10.2019 00:00:00 16,5 14,0 4 2 8 4 WNW - 15 0 0,0
18.10.2019 23:00:00 17,2 14,4 4 2 9 5 NW 1015,1 18 0 0,0
18.10.2019 22:00:00 18,6 15,8 6 4 16 8 W - 20 0 0,0
18.10.2019 21:00:00 19,2 15,9 10 6 22 12 W - 20 0 0,0
18.10.2019 20:00:00 20,0 16,2 14 8 24 13 W - 20 0 -
18.10.2019 19:00:00 21,5 16,0 12 6 22 12 W - 20 0 0,0
18.10.2019 18:00:00 22,0 16,5 11 6 25 14 W - 20 0 0,0
18.10.2019 17:00:00 22,4 16,2 11 6 22 12 W - 20 0 0,0
18.10.2019 16:00:00 23,7 17,2 11 6 21 12 WSW - 20 0 0,0
18.10.2019 15:00:00 22,7 16,9 14 8 22 12 W - 20 0 0,0
18.10.2019 14:00:00 22,0 14,9 8 4 16 9 WSW - 20 0 -
18.10.2019 13:00:00 21,8 17,0 10 5 18 10 WSW - 20 0 0,0
18.10.2019 12:00:00 20,3 17,7 8 5 13 7 SSW - 20 0 0,0
18.10.2019 11:00:00 18,5 17,0 1 1 8 4 WNW - 20 0 0,0
18.10.2019 10:00:00 16,2 14,7 4 2 6 4 N - 11 0 0,0
18.10.2019 09:00:00 13,4 11,8 6 3 10 5 N - 5 0 0,0
18.10.2019 08:00:00 12,8 11,2 8 5 10 5 N - 18 0 -
18.10.2019 07:00:00 12,3 10,5 8 5 10 6 N - 20 0 0,0
18.10.2019 06:00:00 12,3 10,5 7 4 9 5 N - 20 0 0,0
18.10.2019 05:00:00 12,1 10,2 8 4 9 5 N - 20 0 0,0
18.10.2019 04:00:00 12,6 10,7 6 3 8 5 N - 20 0 0,0
18.10.2019 03:00:00 12,8 10,7 5 3 6 4 N - 20 0 0,0
18.10.2019 02:00:00 13,5 11,4 5 3 7 4 NNE - 20 0 -
18.10.2019 01:00:00 13,9 11,8 5 3 8 5 NNE - 20 0 0,0
18.10.2019 00:00:00 14,1 11,6 7 4 9 5 N - 20 0 0,0
17.10.2019 23:00:00 14,6 11,8 8 4 9 5 NNE - 16 0 0,0
17.10.2019 22:00:00 16,2 12,8 4 2 11 6 NNW - 20 0 0,0
17.10.2019 21:00:00 18,3 14,4 10 5 20 11 W - 20 0 0,0
17.10.2019 20:00:00 20,0 14,8 13 7 24 13 W - 20 0 -
17.10.2019 19:00:00 21,5 14,9 17 9 25 14 W - 20 0 0,0
17.10.2019 18:00:00 22,1 14,7 16 8 28 15 W - 20 0 0,0
17.10.2019 17:00:00 22,1 14,2 17 9 35 19 W - 20 0 0,0
17.10.2019 16:00:00 22,6 12,8 19 11 30 16 W - 20 0 0,0
17.10.2019 15:00:00 22,3 13,9 18 10 33 18 W - 20 0 0,0
17.10.2019 14:00:00 22,2 13,0 18 10 30 16 W - 20 0 -
17.10.2019 13:00:00 22,1 13,7 14 8 28 15 W - 20 0 0,0
17.10.2019 12:00:00 21,8 13,7 10 5 21 11 WSW - 20 0 0,0
17.10.2019 11:00:00 19,5 13,7 11 6 - - W - 20 - -
17.10.2019 10:00:00 - - - - - - - - - - -
17.10.2019 09:00:00 11,3 9,0 11 6 14 7 NW - 20 0 0,0
17.10.2019 08:00:00 11,8 9,5 9 5 11 6 NW - 20 0 -
17.10.2019 07:00:00 13,1 10,8 10 5 19 10 NNW - 20 0 0,0
17.10.2019 06:00:00 12,5 10,4 9 5 15 8 WNW - 20 0 0,0
17.10.2019 05:00:00 12,4 10,3 9 5 11 6 WNW - 20 0 0,0
17.10.2019 04:00:00 12,6 10,5 9 5 14 8 WNW - 20 0 0,0
17.10.2019 03:00:00 12,5 10,2 9 5 12 6 WNW - 20 0 0,0
17.10.2019 02:00:00 12,5 10,2 9 5 12 7 NNW - 20 0 -
17.10.2019 01:00:00 13,6 11,3 11 6 13 7 NNW - 20 0 0,0
17.10.2019 00:00:00 13,8 11,3 5 3 9 5 NNW - 20 0 0,0
16.10.2019 23:00:00 14,8 11,9 5 3 11 6 NW - 18 0 0,0
16.10.2019 22:00:00 15,2 11,4 9 5 11 6 NNW - 20 0 0,0
16.10.2019 21:00:00 17,7 13,0 7 4 12 7 NW - 20 0 0,0
16.10.2019 20:00:00 19,9 14,3 8 5 15 8 WSW - 20 0 -
16.10.2019 19:00:00 21,6 14,7 9 5 20 11 WSW - 20 0 0,0
16.10.2019 18:00:00 22,4 14,0 10 5 21 11 WSW - 20 0 0,0
16.10.2019 17:00:00 22,7 14,5 10 6 21 11 WSW - 20 0 0,0
16.10.2019 16:00:00 22,5 14,4 10 5 19 11 WSW - 20 0 0,0
16.10.2019 15:00:00 21,6 13,5 11 6 19 10 WSW - 20 0 0,0
16.10.2019 14:00:00 20,9 12,9 10 5 16 9 SSW - 20 0 -
16.10.2019 13:00:00 20,8 12,2 9 5 16 8 S - 20 0 0,0
16.10.2019 12:00:00 20,6 11,8 7 4 13 7 SSE - 20 0 0,0
16.10.2019 11:00:00 19,0 13,0 2 1 9 5 NNE - 20 0 0,0
16.10.2019 10:00:00 14,8 12,5 5 3 10 5 N - 20 0 0,0
16.10.2019 09:00:00 10,1 7,7 8 4 10 6 N - 20 0 0,0
16.10.2019 08:00:00 10,0 7,4 9 5 10 6 N - 20 0 -
16.10.2019 07:00:00 10,4 7,8 7 4 11 6 NNE - 20 0 0,0
16.10.2019 06:00:00 10,8 8,2 6 4 8 4 N - 20 0 0,0
16.10.2019 05:00:00 10,9 8,3 6 4 9 5 N - 20 0 0,0
16.10.2019 04:00:00 11,6 8,8 2 1 11 6 N - 20 0 0,0
16.10.2019 03:00:00 12,1 9,1 9 5 12 6 N - 20 0 0,0
16.10.2019 02:00:00 12,2 8,7 8 5 9 5 N - 20 0 -
16.10.2019 01:00:00 13,1 9,4 8 4 11 6 NNE - 20 0 0,0
16.10.2019 00:00:00 13,1 9,2 9 5 10 5 N - 20 0 0,0
15.10.2019 23:00:00 13,9 8,9 7 4 10 6 N - 20 0 0,0
15.10.2019 22:00:00 15,1 8,8 4 2 8 4 ENE - 20 0 0,0
15.10.2019 21:00:00 16,8 9,0 3 2 8 4 N - 20 0 0,0
15.10.2019 20:00:00 19,4 8,7 6 3 12 7 WNW - 20 0 -
15.10.2019 19:00:00 21,1 8,4 7 4 19 10 W - 20 0 0,0
15.10.2019 18:00:00 22,4 8,9 10 5 18 10 WSW - 20 0 0,0
15.10.2019 17:00:00 22,0 9,5 11 6 18 10 WSW - 20 0 0,0
15.10.2019 16:00:00 22,0 10,2 12 7 20 11 WSW - 20 0 0,0
15.10.2019 15:00:00 21,4 11,1 13 7 22 12 SW - 20 0 0,0
15.10.2019 14:00:00 21,4 10,3 17 9 24 13 SSW - 20 0 -
15.10.2019 13:00:00 21,1 9,0 14 8 33 18 SSW - 20 0 0,0
15.10.2019 12:00:00 21,3 10,8 21 11 32 17 SW - 20 0 0,0
15.10.2019 11:00:00 20,8 10,6 14 8 23 13 S - 20 0 0,0
15.10.2019 10:00:00 20,0 8,7 11 6 30 16 W - 20 0 0,0
15.10.2019 09:00:00 18,8 9,3 15 8 30 16 W - 20 0 0,0
15.10.2019 08:00:00 18,9 10,2 18 10 31 17 W - 20 0 -
15.10.2019 07:00:00 19,6 10,9 16 9 42 23 WSW - 20 0 0,0
15.10.2019 06:00:00 20,0 11,2 24 13 51 27 WSW - 20 0 0,0
15.10.2019 05:00:00 20,2 13,7 28 15 53 29 WSW - 20 0 0,0
15.10.2019 04:00:00 20,3 14,4 29 16 58 31 W - 20 0 0,0
15.10.2019 03:00:00 20,5 14,2 42 23 67 36 W - 20 0 0,0
15.10.2019 02:00:00 20,5 13,7 37 20 65 35 W - 20 0 -
15.10.2019 01:00:00 21,4 13,6 37 20 62 33 W - 20 0 0,0
15.10.2019 00:00:00 21,3 14,7 37 20 66 36 W - 20 0 0,0
14.10.2019 23:00:00 21,3 14,5 42 23 74 40 W - 20 0 0,0

tt = temperature
td = dewpoint
ff = wind speed
fx = gusts
dd = wind direction
ppp = reduced air pressure
vv = visibility
sd = sunshine duration
rr = precipitation

Next stations